Time;durP1;ratioP1;P1;durP2;ratioP2;P2;SDS_P1;SDS_P2;PMS_P1;PMS_P2;Temp;Humidity;BMP_temperature;BMP_pressure;BME280_temperature;BME280_humidity;BME280_pressure;Samples;Min_cycle;Max_cycle;Signal;HPM_P1;HPM_P2
2024/04/13 00:01:35;;;;;;;0.85;0.25;;;;;;;-139.19;100.00;56970.53;5524593;26;20320;-60
2024/04/13 00:04:02;;;;;;;0.68;0.68;;;;;;;-139.19;100.00;56970.53;5517152;26;20333;-61
2024/04/13 00:06:28;;;;;;;0.45;0.45;;;;;;;-139.19;100.00;56970.53;5524814;26;20102;-60
2024/04/13 00:08:55;;;;;;;1.60;1.08;;;;;;;-139.19;100.00;56970.53;5510162;26;19997;-61
2024/04/13 00:11:21;;;;;;;11.70;0.73;;;;;;;-139.19;100.00;56970.53;5498068;26;19998;-60
2024/04/13 00:13:47;;;;;;;1.08;0.68;;;;;;;-139.19;100.00;56970.53;5489035;26;20008;-60
2024/04/13 00:16:12;;;;;;;0.10;0.10;;;;;;;-139.19;100.00;56970.53;5489446;26;20349;-60
2024/04/13 00:18:37;;;;;;;0.55;0.52;;;;;;;-139.19;100.00;56970.53;5488559;26;20002;-60
2024/04/13 00:21:03;;;;;;;1.40;1.05;;;;;;;-139.19;100.00;56970.53;5488950;26;20322;-61
2024/04/13 00:23:30;;;;;;;0.68;0.68;;;;;;;-139.19;100.00;56970.53;5498821;26;20362;-61
2024/04/13 00:25:56;;;;;;;1.83;0.75;;;;;;;-139.19;100.00;56970.53;5524790;26;20025;-61
2024/04/13 00:28:22;;;;;;;0.63;0.55;;;;;;;-139.19;100.00;56970.53;5524503;26;20317;-60
2024/04/13 00:30:47;;;;;;;0.77;0.77;;;;;;;-139.19;100.00;56970.53;5524665;26;20342;-60
2024/04/13 00:33:13;;;;;;;1.45;0.77;;;;;;;-139.19;100.00;56970.53;5524116;26;20001;-61
2024/04/13 00:35:39;;;;;;;0.30;0.30;;;;;;;-139.19;100.00;56970.53;5524699;26;20012;-61
2024/04/13 00:38:04;;;;;;;0.55;0.55;;;;;;;-139.19;100.00;56970.53;5501037;26;19994;-61
2024/04/13 00:40:30;;;;;;;0.90;0.50;;;;;;;-139.19;100.00;56970.53;5488452;26;20482;-61
2024/04/13 00:43:24;;;;;;;0.45;0.32;;;;;;;-139.19;100.00;56970.53;5489173;26;20349;-61
2024/04/13 00:45:50;;;;;;;0.08;0.08;;;;;;;-139.19;100.00;56970.53;5497869;26;20382;-60
2024/04/13 00:48:20;;;;;;;0.30;0.30;;;;;;;-139.19;100.00;56970.53;5524441;26;19994;-60
2024/04/13 00:50:53;;;;;;;0.30;0.30;;;;;;;-139.19;100.00;56970.53;5524594;26;19993;-60
2024/04/13 00:53:20;;;;;;;0.13;0.13;;;;;;;-139.19;100.00;56970.53;5524380;26;20024;-61
2024/04/13 00:55:47;;;;;;;0.20;0.20;;;;;;;-139.19;100.00;56970.53;5524649;26;20539;-61
2024/04/13 00:58:13;;;;;;;2.25;0.70;;;;;;;-139.19;100.00;56970.53;5523464;26;20016;-61
2024/04/13 01:00:40;;;;;;;0.57;0.57;;;;;;;-139.19;100.00;56970.53;5524788;26;19993;-60
2024/04/13 01:03:06;;;;;;;0.40;0.40;;;;;;;-139.19;100.00;56970.53;5522581;26;20013;-61
2024/04/13 01:05:33;;;;;;;1.02;0.40;;;;;;;-139.19;100.00;56970.53;5502748;26;20021;-62
2024/04/13 01:08:00;;;;;;;0.50;0.50;;;;;;;-139.19;100.00;56970.53;5488278;26;19998;-61
2024/04/13 01:10:25;;;;;;;0.20;0.20;;;;;;;-139.19;100.00;56970.53;5487882;26;20026;-61
2024/04/13 01:12:51;;;;;;;1.35;0.95;;;;;;;-139.19;100.00;56970.53;5488054;26;20013;-61
2024/04/13 01:15:17;;;;;;;0.30;0.30;;;;;;;-139.19;100.00;56970.53;5488080;26;20082;-60
2024/04/13 01:17:43;;;;;;;0.40;0.35;;;;;;;-139.19;100.00;56970.53;5488249;26;20021;-64
2024/04/13 01:20:09;;;;;;;0.43;0.43;;;;;;;-139.19;100.00;56970.53;5489651;26;19994;-65
2024/04/13 01:22:41;;;;;;;0.40;0.30;;;;;;;-139.19;100.00;56970.53;5490000;26;20422;-65
2024/04/13 01:25:09;;;;;;;;;;;;;;;-139.19;100.00;56970.53;5525360;26;20005;-65
2024/04/13 01:27:34;;;;;;;0.20;0.20;;;;;;;-139.19;100.00;56970.53;5525964;26;19924;-65
2024/04/13 01:30:00;;;;;;;0.20;0.20;;;;;;;-139.19;100.00;56970.53;5526442;26;20111;-65
2024/04/13 01:32:26;;;;;;;0.13;0.13;;;;;;;-139.19;100.00;56970.53;5525961;26;20009;-65
2024/04/13 01:34:51;;;;;;;0.32;0.32;;;;;;;-139.19;100.00;56970.53;5526391;26;19990;-65
2024/04/13 01:37:16;;;;;;;0.45;0.45;;;;;;;-139.19;100.00;56970.53;5524445;26;20009;-65
2024/04/13 01:39:42;;;;;;;0.35;0.35;;;;;;;-139.19;100.00;56970.53;5510616;26;19997;-65
2024/04/13 01:42:07;;;;;;;0.32;0.15;;;;;;;-139.19;100.00;56970.53;5524843;26;20009;-65
2024/04/13 01:44:33;;;;;;;1.55;1.27;;;;;;;-139.19;100.00;56970.53;5514727;26;20043;-65
2024/04/13 01:47:01;;;;;;;0.63;0.40;;;;;;;-139.19;100.00;56970.53;5490336;26;20002;-65
2024/04/13 01:49:26;;;;;;;0.45;0.45;;;;;;;-139.19;100.00;56970.53;5491939;26;19997;-65
2024/04/13 01:51:51;;;;;;;1.05;1.00;;;;;;;-139.19;100.00;56970.53;5491485;26;20013;-65
2024/04/13 01:54:17;;;;;;;2.97;0.88;;;;;;;-139.19;100.00;56970.53;5489230;26;19998;-66
2024/04/13 01:56:42;;;;;;;0.43;0.40;;;;;;;-139.19;100.00;56970.53;5489115;26;20002;-65
2024/04/13 01:59:08;;;;;;;0.75;0.47;;;;;;;-139.19;100.00;56970.53;5489044;26;20009;-65
2024/04/13 02:01:33;;;;;;;0.32;0.28;;;;;;;-139.19;100.00;56970.53;5490881;26;20008;-65
2024/04/13 02:03:59;;;;;;;1.10;1.00;;;;;;;-139.19;100.00;56970.53;5489002;26;19998;-65
2024/04/13 02:06:24;;;;;;;1.75;0.68;;;;;;;-139.19;100.00;56970.53;5489503;26;20002;-65
2024/04/13 02:08:50;;;;;;;0.52;0.50;;;;;;;-139.19;100.00;56970.53;5494756;26;20005;-65
2024/04/13 02:11:16;;;;;;;1.08;0.95;;;;;;;-139.19;100.00;56970.53;5524868;26;20394;-65
2024/04/13 02:13:42;;;;;;;0.40;0.40;;;;;;;-139.19;100.00;56970.53;5525713;26;19993;-64
2024/04/13 02:16:08;;;;;;;0.30;0.30;;;;;;;-139.19;100.00;56970.53;5528462;26;20012;-65
2024/04/13 02:18:33;;;;;;;0.30;0.20;;;;;;;-139.19;100.00;56970.53;5526364;26;20445;-65
2024/04/13 02:20:59;;;;;;;0.30;0.30;;;;;;;-139.19;100.00;56970.53;5526824;26;19997;-65
2024/04/13 02:23:24;;;;;;;1.00;0.70;;;;;;;-139.19;100.00;56970.53;5520876;26;19998;-65
2024/04/13 02:25:50;;;;;;;0.28;0.28;;;;;;;-139.19;100.00;56970.53;5492668;26;20049;-65
2024/04/13 02:28:15;;;;;;;0.75;0.38;;;;;;;-139.19;100.00;56970.53;5496959;26;20355;-61
2024/04/13 02:30:41;;;;;;;0.20;0.20;;;;;;;-139.19;100.00;56970.53;5528212;26;19998;-60
2024/04/13 02:33:06;;;;;;;0.10;0.10;;;;;;;-139.19;100.00;56970.53;5528399;26;20008;-60
2024/04/13 02:35:32;;;;;;;0.32;0.32;;;;;;;-139.19;100.00;56970.53;5513815;26;19998;-60
2024/04/13 02:37:58;;;;;;;0.30;0.30;;;;;;;-139.19;100.00;56970.53;5529186;26;20005;-60
2024/04/13 02:40:23;;;;;;;0.10;0.10;;;;;;;-139.19;100.00;56970.53;5527724;26;20008;-61
2024/04/13 02:42:52;;;;;;;0.10;0.10;;;;;;;-139.19;100.00;56970.53;5520218;26;19994;-61
2024/04/13 02:45:20;;;;;;;1.05;0.77;;;;;;;-139.19;100.00;56970.53;5492315;26;19994;-60
2024/04/13 02:47:48;;;;;;;0.30;0.30;;;;;;;-139.19;100.00;56970.53;5529318;26;20417;-61
2024/04/13 02:50:15;;;;;;;0.90;0.50;;;;;;;-139.19;100.00;56970.53;5527808;26;20012;-60
2024/04/13 02:52:41;;;;;;;0.43;0.43;;;;;;;-139.19;100.00;56970.53;5527527;26;20341;-60
2024/04/13 02:55:07;;;;;;;1.92;1.35;;;;;;;-139.19;100.00;56970.53;5505147;26;19998;-60
2024/04/13 02:57:33;;;;;;;0.40;0.40;;;;;;;-139.19;100.00;56970.53;5492020;26;20012;-60
2024/04/13 02:59:58;;;;;;;0.10;0.10;;;;;;;-139.19;100.00;56970.53;5512524;26;20009;-61
2024/04/13 03:02:24;;;;;;;0.60;0.60;;;;;;;-139.19;100.00;56970.53;5527723;26;20001;-61
2024/04/13 03:04:53;;;;;;;0.28;0.28;;;;;;;-139.19;100.00;56970.53;5498456;26;20014;-60
2024/04/13 03:07:19;;;;;;;2.53;0.47;;;;;;;-139.19;100.00;56970.53;5507384;26;20035;-61
2024/04/13 03:09:46;;;;;;;0.52;0.45;;;;;;;-139.19;100.00;56970.53;5491764;26;20431;-61
2024/04/13 03:12:13;;;;;;;0.20;0.20;;;;;;;-139.19;100.00;56970.53;5492392;26;20067;-60
2024/04/13 03:14:38;;;;;;;0.63;0.63;;;;;;;-139.19;100.00;56970.53;5491786;26;20367;-60
2024/04/13 03:17:04;;;;;;;0.63;0.63;;;;;;;-139.19;100.00;56970.53;5492824;26;20013;-60
2024/04/13 03:19:29;;;;;;;0.22;0.22;;;;;;;-139.19;100.00;56970.53;5491666;26;19998;-61
2024/04/13 03:21:55;;;;;;;0.30;0.30;;;;;;;-139.19;100.00;56970.53;5491645;26;20433;-60
2024/04/13 03:24:20;;;;;;;0.85;0.52;;;;;;;-139.19;100.00;56970.53;5521311;26;20010;-61
2024/04/13 03:26:48;;;;;;;0.35;0.35;;;;;;;-139.19;100.00;56970.53;5490576;26;19998;-60
2024/04/13 03:29:14;;;;;;;1.65;0.65;;;;;;;-139.19;100.00;56970.53;5491490;26;20394;-60
2024/04/13 03:31:41;;;;;;;0.63;0.63;;;;;;;-139.19;100.00;56970.53;5491483;26;20005;-61
2024/04/13 03:34:07;;;;;;;0.50;0.50;;;;;;;-139.19;100.00;56970.53;5491393;26;20470;-60
2024/04/13 03:36:33;;;;;;;0.28;0.28;;;;;;;-139.19;100.00;56970.53;5491385;26;19994;-60
2024/04/13 03:38:59;;;;;;;0.50;0.50;;;;;;;-139.19;100.00;56970.53;5502062;26;19993;-60
2024/04/13 03:41:25;;;;;;;0.75;0.75;;;;;;;-139.19;100.00;56970.53;5512329;26;20006;-60
2024/04/13 03:43:50;;;;;;;0.35;0.35;;;;;;;-139.19;100.00;56970.53;5527798;26;20005;-61
2024/04/13 03:46:15;;;;;;;0.35;0.35;;;;;;;-139.19;100.00;56970.53;5527117;26;20001;-60
2024/04/13 03:48:43;;;;;;;0.75;0.75;;;;;;;-139.19;100.00;56970.53;5527374;26;20310;-61
2024/04/13 03:51:10;;;;;;;0.32;0.32;;;;;;;-139.19;100.00;56970.53;5493544;26;20430;-60
2024/04/13 03:53:35;;;;;;;0.60;0.60;;;;;;;-139.19;100.00;56970.53;5491648;26;20030;-60
2024/04/13 03:56:01;;;;;;;0.43;0.40;;;;;;;-139.19;100.00;56970.53;5492180;26;20013;-60
2024/04/13 03:58:27;;;;;;;0.35;0.35;;;;;;;-139.19;100.00;56970.53;5515331;26;20018;-60
2024/04/13 04:00:52;;;;;;;0.10;0.10;;;;;;;-139.19;100.00;56970.53;5513766;26;20010;-60
2024/04/13 04:03:18;;;;;;;0.22;0.22;;;;;;;-139.19;100.00;56970.53;5491067;26;20078;-60
2024/04/13 04:05:47;;;;;;;2.65;1.45;;;;;;;-139.19;100.00;56970.53;5491353;26;20333;-61
2024/04/13 04:08:12;;;;;;;0.20;0.20;;;;;;;-139.19;100.00;56970.53;5491067;26;20002;-61
2024/04/13 04:10:37;;;;;;;0.40;0.40;;;;;;;-139.19;100.00;56970.53;5490862;26;20326;-61
2024/04/13 04:13:05;;;;;;;3.10;1.63;;;;;;;-139.19;100.00;56970.53;5490830;26;20006;-61
2024/04/13 04:15:32;;;;;;;0.10;0.10;;;;;;;-139.19;100.00;56970.53;5504470;26;20426;-61
2024/04/13 04:17:57;;;;;;;2.70;0.70;;;;;;;-139.19;100.00;56970.53;5491438;26;20006;-60
2024/04/13 04:20:23;;;;;;;0.10;0.10;;;;;;;-139.19;100.00;56970.53;5490793;26;20013;-61
2024/04/13 04:22:48;;;;;;;0.17;0.17;;;;;;;-139.19;100.00;56970.53;5522478;26;20008;-61
2024/04/13 04:25:13;;;;;;;0.17;0.17;;;;;;;-139.19;100.00;56970.53;5513989;26;20001;-61
2024/04/13 04:27:39;;;;;;;0.10;0.10;;;;;;;-139.19;100.00;56970.53;5527472;26;20065;-60
2024/04/13 04:30:05;;;;;;;0.60;0.57;;;;;;;-139.19;100.00;56970.53;5526080;26;20005;-61
2024/04/13 04:32:30;;;;;;;0.82;0.52;;;;;;;-139.19;100.00;56970.53;5526715;26;20433;-61
2024/04/13 04:34:55;;;;;;;0.40;0.40;;;;;;;-139.19;100.00;56970.53;5526430;26;20074;-60
2024/04/13 04:37:21;;;;;;;0.10;0.10;;;;;;;-139.19;100.00;56970.53;5492564;26;20006;-61
2024/04/13 04:39:46;;;;;;;0.28;0.28;;;;;;;-139.19;100.00;56970.53;5491138;26;20002;-60
2024/04/13 04:42:11;;;;;;;0.32;0.32;;;;;;;-139.19;100.00;56970.53;5490796;26;20315;-60
2024/04/13 04:44:37;;;;;;;0.65;0.65;;;;;;;-139.19;100.00;56970.53;5509908;26;20378;-61
2024/04/13 04:47:02;;;;;;;1.00;0.90;;;;;;;-139.19;100.00;56970.53;5470269;26;20474;-61
2024/04/13 04:49:27;;;;;;;0.20;0.20;;;;;;;-139.19;100.00;56970.53;5491187;26;20013;-65
2024/04/13 04:51:53;;;;;;;0.55;0.38;;;;;;;-139.19;100.00;56970.53;5490896;26;20016;-65
2024/04/13 04:54:20;;;;;;;0.45;0.40;;;;;;;-139.19;100.00;56970.53;5492090;26;20002;-65
2024/04/13 04:56:45;;;;;;;0.40;0.40;;;;;;;-139.19;100.00;56970.53;5509766;26;19998;-65
2024/04/13 04:59:10;;;;;;;0.57;0.57;;;;;;;-139.19;100.00;56970.53;5509646;26;20083;-65
2024/04/13 05:01:36;;;;;;;0.88;0.88;;;;;;;-139.19;100.00;56970.53;5526896;26;20007;-65
2024/04/13 05:04:01;;;;;;;0.55;0.45;;;;;;;-139.19;100.00;56970.53;5525430;26;20001;-65
2024/04/13 05:06:27;;;;;;;0.57;0.57;;;;;;;-139.19;100.00;56970.53;5525943;26;20445;-65
2024/04/13 05:08:52;;;;;;;0.32;0.32;;;;;;;-139.19;100.00;56970.53;5523443;26;20001;-65
2024/04/13 05:11:17;;;;;;;0.43;0.20;;;;;;;-139.19;100.00;56970.53;5508437;26;19998;-65
2024/04/13 05:13:43;;;;;;;0.10;0.10;;;;;;;-139.19;100.00;56970.53;5512769;26;20013;-65
2024/04/13 05:16:08;;;;;;;0.52;0.52;;;;;;;-139.19;100.00;56970.53;5525847;26;19997;-65
2024/04/13 05:18:37;;;;;;;4.80;0.55;;;;;;;-139.19;100.00;56970.53;5524327;26;20313;-65
2024/04/13 05:21:03;;;;;;;0.10;0.10;;;;;;;-139.19;100.00;56970.53;5497524;26;20425;-65
2024/04/13 05:23:28;;;;;;;0.28;0.28;;;;;;;-139.19;100.00;56970.53;5525610;26;20526;-65
2024/04/13 05:25:53;;;;;;;0.90;0.82;;;;;;;-139.19;100.00;56970.53;5525373;26;20005;-64
2024/04/13 05:28:23;;;;;;;0.38;0.38;;;;;;;-139.19;100.00;56970.53;5496181;26;19998;-65
2024/04/13 05:30:56;;;;;;;0.13;0.13;;;;;;;-139.19;100.00;56970.53;5489630;26;20002;-65
2024/04/13 05:33:23;;;;;;;0.10;0.10;;;;;;;-139.19;100.00;56970.53;5489552;26;20322;-65
2024/04/13 05:35:49;;;;;;;0.32;0.32;;;;;;;-139.19;100.00;56970.53;5508020;26;20001;-65
2024/04/13 05:38:14;;;;;;;0.40;0.40;;;;;;;-139.19;100.00;56970.53;5522998;26;20310;-64
2024/04/13 05:40:39;;;;;;;0.10;0.10;;;;;;;-139.19;100.00;56970.53;5494430;26;20014;-64
2024/04/13 05:43:06;;;;;;;0.30;0.30;;;;;;;-139.19;100.00;56970.53;5508248;26;20012;-65
2024/04/13 05:45:33;;;;;;;0.25;0.17;;;;;;;-139.19;100.00;56970.53;5513610;26;20368;-65
2024/04/13 05:47:58;;;;;;;0.47;0.30;;;;;;;-139.19;100.00;56970.53;5487306;26;19998;-65
2024/04/13 05:50:23;;;;;;;0.15;0.15;;;;;;;-139.19;100.00;56970.53;5512047;26;20065;-65
2024/04/13 05:52:48;;;;;;;0.50;0.50;;;;;;;-139.19;100.00;56970.53;5528750;26;20330;-66
2024/04/13 05:55:14;;;;;;;0.20;0.20;;;;;;;-139.19;100.00;56970.53;5525154;26;20436;-65
2024/04/13 05:57:39;;;;;;;0.10;0.10;;;;;;;-139.19;100.00;56970.53;5491265;26;20430;-65
2024/04/13 06:00:09;;;;;;;1.08;0.73;;;;;;;-139.19;100.00;56970.53;5490973;26;20002;-65
2024/04/13 06:02:34;;;;;;;0.57;0.57;;;;;;;-139.19;100.00;56970.53;5493869;26;19994;-65
2024/04/13 06:04:59;;;;;;;0.38;0.38;;;;;;;-139.19;100.00;56970.53;5526974;26;20437;-65
2024/04/13 06:07:25;;;;;;;0.55;0.52;;;;;;;-139.19;100.00;56970.53;5526301;26;20002;-65
2024/04/13 06:09:50;;;;;;;1.35;0.50;;;;;;;-139.19;100.00;56970.53;5521854;26;20009;-64
2024/04/13 06:12:15;;;;;;;0.52;0.40;;;;;;;-139.19;100.00;56970.53;5490781;26;20009;-65
2024/04/13 06:14:41;;;;;;;0.40;0.30;;;;;;;-139.19;100.00;56970.53;5490951;26;20013;-65
2024/04/13 06:17:06;;;;;;;0.20;0.20;;;;;;;-139.19;100.00;56970.53;5513112;26;20004;-65
2024/04/13 06:19:32;;;;;;;7.90;1.15;;;;;;;-139.19;100.00;56970.53;5528165;26;20001;-65
2024/04/13 06:21:58;;;;;;;0.20;0.20;;;;;;;-139.19;100.00;56970.53;5528090;26;20012;-65
2024/04/13 06:24:23;;;;;;;0.10;0.10;;;;;;;-139.19;100.00;56970.53;5523494;26;20001;-65
2024/04/13 06:26:49;;;;;;;0.52;0.50;;;;;;;-139.19;100.00;56970.53;5525940;26;20012;-65
2024/04/13 06:29:14;;;;;;;1.23;1.13;;;;;;;-139.19;100.00;56970.53;5521744;26;20002;-66
2024/04/13 06:31:39;;;;;;;0.98;0.63;;;;;;;-139.19;100.00;56970.53;5492180;26;20074;-65
2024/04/13 06:34:07;;;;;;;7.13;1.10;;;;;;;-139.19;100.00;56970.53;5519495;26;20013;-65
2024/04/13 06:36:32;;;;;;;3.00;1.80;;;;;;;-139.19;100.00;56970.53;5519854;26;20423;-74
2024/04/13 06:38:58;;;;;;;1.02;0.93;;;;;;;-139.19;100.00;56970.53;5492430;26;20078;-75
2024/04/13 06:41:24;;;;;;;3.53;2.00;;;;;;;-139.19;100.00;56970.53;5492226;26;20081;-75
2024/04/13 06:43:49;;;;;;;1.55;1.45;;;;;;;-139.19;100.00;56970.53;5517819;26;20095;-65
2024/04/13 06:46:15;;;;;;;3.47;2.03;;;;;;;-139.19;100.00;56970.53;5527613;26;20002;-65
2024/04/13 06:48:40;;;;;;;1.63;1.52;;;;;;;-139.19;100.00;56970.53;5507907;26;20262;-66
2024/04/13 06:51:06;;;;;;;1.73;1.63;;;;;;;-139.19;100.00;56970.53;5481103;26;20002;-66
2024/04/13 06:53:31;;;;;;;2.85;1.98;;;;;;;-139.19;100.00;56970.53;5524215;26;20012;-65
2024/04/13 06:55:56;;;;;;;3.08;2.03;;;;;;;-139.19;100.00;56970.53;5521112;26;19994;-66
2024/04/13 06:58:23;;;;;;;6.15;4.10;;;;;;;-139.19;100.00;56970.53;5492022;26;20303;-66
2024/04/13 07:00:57;;;;;;;7.65;3.72;;;;;;;-139.19;100.00;56970.53;5490800;26;20070;-65
2024/04/13 07:03:23;;;;;;;3.67;1.95;;;;;;;-139.19;100.00;56970.53;5512782;26;20004;-66
2024/04/13 07:05:59;;;;;;;6.35;3.58;;;;;;;-139.19;100.00;56970.53;5524720;26;20001;-65
2024/04/13 07:08:26;;;;;;;3.75;3.10;;;;;;;-139.19;100.00;56970.53;5527689;26;20013;-66
2024/04/13 07:10:55;;;;;;;9.52;2.00;;;;;;;-139.19;100.00;56970.53;5497873;26;20010;-65
2024/04/13 07:13:21;;;;;;;2.30;1.90;;;;;;;-139.19;100.00;56970.53;5495379;26;19998;-66
2024/04/13 07:15:47;;;;;;;1.05;0.77;;;;;;;-139.19;100.00;56970.53;5527626;26;19997;-66
2024/04/13 07:18:14;;;;;;;5.03;3.15;;;;;;;-139.19;100.00;56970.53;5527231;26;20429;-66
2024/04/13 07:20:40;;;;;;;12.73;3.50;;;;;;;-139.19;100.00;56970.53;5527524;26;20016;-65
2024/04/13 07:23:06;;;;;;;1.58;1.35;;;;;;;-139.19;100.00;56970.53;5516924;26;20002;-66
2024/04/13 07:25:31;;;;;;;2.05;1.73;;;;;;;-139.19;100.00;56970.53;5491481;26;20088;-65
2024/04/13 07:27:57;;;;;;;3.97;2.80;;;;;;;-139.19;100.00;56970.53;5491502;26;20070;-66
2024/04/13 07:30:22;;;;;;;5.88;3.35;;;;;;;-139.19;100.00;56970.53;5491278;26;20442;-66
2024/04/13 07:32:47;;;;;;;7.53;3.80;;;;;;;-139.19;100.00;56970.53;5515607;26;19993;-66
2024/04/13 07:35:13;;;;;;;7.82;3.92;;;;;;;-139.19;100.00;56970.53;5527310;26;20002;-66
2024/04/13 07:37:39;;;;;;;7.75;3.22;;;;;;;-139.19;100.00;56970.53;5495513;26;20326;-65
2024/04/13 07:40:05;;;;;;;5.50;4.47;;;;;;;-139.19;100.00;56970.53;5491932;26;20453;-66
2024/04/13 07:42:30;;;;;;;9.68;3.28;;;;;;;-139.19;100.00;56970.53;5491787;26;20001;-66
2024/04/13 07:44:55;;;;;;;6.90;3.22;;;;;;;-139.19;100.00;56970.53;5492035;26;20337;-65
2024/04/13 07:47:21;;;;;;;5.22;3.10;;;;;;;-139.19;100.00;56970.53;5491248;26;20038;-76
2024/04/13 07:49:46;;;;;;;5.43;3.42;;;;;;;-139.19;100.00;56970.53;5514539;26;20045;-76
2024/04/13 07:52:11;;;;;;;1.60;1.50;;;;;;;-139.19;100.00;56970.53;5500085;26;20009;-65
2024/04/13 07:54:37;;;;;;;12.05;5.05;;;;;;;-139.19;100.00;56970.53;5493265;26;20013;-66
2024/04/13 07:57:03;;;;;;;3.53;2.63;;;;;;;-139.19;100.00;56970.53;5491488;26;20041;-65
2024/04/13 07:59:28;;;;;;;1.45;1.35;;;;;;;-139.19;100.00;56970.53;5492012;26;20006;-66
2024/04/13 08:01:53;;;;;;;3.20;2.33;;;;;;;-139.19;100.00;56970.53;5490990;26;19994;-66
2024/04/13 08:04:19;;;;;;;2.20;1.95;;;;;;;-139.19;100.00;56970.53;5496504;26;20009;-66
2024/04/13 08:06:45;;;;;;;2.17;1.20;;;;;;;-139.19;100.00;56970.53;5527399;26;19997;-66
2024/04/13 08:09:10;;;;;;;3.50;2.30;;;;;;;-139.19;100.00;56970.53;5527306;26;20016;-66
2024/04/13 08:11:36;;;;;;;1.17;1.08;;;;;;;-139.19;100.00;56970.53;5526910;26;20333;-66
2024/04/13 08:14:02;;;;;;;1.60;1.13;;;;;;;-139.19;100.00;56970.53;5526707;26;20009;-67
2024/04/13 08:16:27;;;;;;;1.90;1.48;;;;;;;-139.19;100.00;56970.53;5510762;26;20418;-66
2024/04/13 08:18:53;;;;;;;1.15;1.02;;;;;;;-139.19;100.00;56970.53;5521688;26;20028;-66
2024/04/13 08:21:18;;;;;;;2.03;1.45;;;;;;;-139.19;100.00;56970.53;5490832;26;20355;-66
2024/04/13 08:23:43;;;;;;;1.35;1.00;;;;;;;-139.19;100.00;56970.53;5490725;26;19994;-66
2024/04/13 08:26:10;;;;;;;1.90;1.45;;;;;;;-139.19;100.00;56970.53;5509650;26;20012;-65
2024/04/13 08:28:35;;;;;;;2.05;1.55;;;;;;;-139.19;100.00;56970.53;5527086;26;20077;-66
2024/04/13 08:31:04;;;;;;;0.80;0.80;;;;;;;-139.19;100.00;56970.53;5497146;26;20326;-66
2024/04/13 08:33:30;;;;;;;1.63;1.30;;;;;;;-139.19;100.00;56970.53;5506622;26;20041;-66
2024/04/13 08:36:05;;;;;;;1.92;1.42;;;;;;;-139.19;100.00;56970.53;5490570;26;19994;-66
2024/04/13 08:38:32;;;;;;;1.58;1.02;;;;;;;-139.19;100.00;56970.53;5490544;26;20330;-66
2024/04/13 08:41:00;;;;;;;1.95;1.30;;;;;;;-139.19;100.00;56970.53;5490617;26;19998;-66
2024/04/13 08:43:25;;;;;;;2.10;1.38;;;;;;;-139.19;100.00;56970.53;5505487;26;19993;-66
2024/04/13 08:45:51;;;;;;;0.95;0.93;;;;;;;-139.19;100.00;56970.53;5526661;26;20315;-66
2024/04/13 08:48:17;;;;;;;1.80;1.13;;;;;;;-139.19;100.00;56970.53;5515907;26;20342;-66
2024/04/13 08:50:44;;;;;;;1.88;1.02;;;;;;;-139.19;100.00;56970.53;5490342;26;20030;-66
2024/04/13 08:53:09;;;;;;;1.35;1.10;;;;;;;-139.19;100.00;56970.53;5490336;26;19994;-66
2024/04/13 08:55:38;;;;;;;1.27;1.05;;;;;;;-139.19;100.00;56970.53;5490289;26;19998;-66
2024/04/13 08:58:04;;;;;;;1.38;1.17;;;;;;;-139.19;100.00;56970.53;5497701;26;19998;-66
2024/04/13 09:00:31;;;;;;;1.83;0.95;;;;;;;-139.19;100.00;56970.53;5526055;26;20465;-66
2024/04/13 09:02:57;;;;;;;1.95;0.98;;;;;;;-139.19;100.00;56970.53;5511408;26;20355;-66
2024/04/13 09:05:25;;;;;;;1.20;0.88;;;;;;;-139.19;100.00;56970.53;5490178;26;20002;-66
2024/04/13 09:07:52;;;;;;;0.70;0.60;;;;;;;-139.19;100.00;56970.53;5490008;26;20433;-66
2024/04/13 09:10:18;;;;;;;1.48;0.98;;;;;;;-139.19;100.00;56970.53;5492136;26;20009;-74
2024/04/13 09:12:44;;;;;;;0.50;0.50;;;;;;;-139.19;100.00;56970.53;5490580;26;20009;-78
2024/04/13 09:15:09;;;;;;;0.93;0.75;;;;;;;-139.19;100.00;56970.53;5490024;26;20326;-78
2024/04/13 09:17:35;;;;;;;1.08;0.75;;;;;;;-139.19;100.00;56970.53;5505366;26;20005;-77
2024/04/13 09:20:08;;;;;;;2.42;1.30;;;;;;;-139.19;100.00;56970.53;5523606;26;20513;-66
2024/04/13 09:22:38;;;;;;;1.60;0.90;;;;;;;-139.19;100.00;56970.53;5525509;26;20439;-67
2024/04/13 09:25:04;;;;;;;1.47;0.97;;;;;;;-139.19;100.00;56970.53;5497047;26;20091;-66
2024/04/13 09:27:31;;;;;;;1.60;1.38;;;;;;;-139.19;100.00;56970.53;5504167;26;20009;-66
2024/04/13 09:30:10;;;;;;;1.95;1.10;;;;;;;-139.19;100.00;56970.53;5492413;26;20441;-66
2024/04/13 09:32:35;;;;;;;1.83;0.73;;;;;;;-139.19;100.00;56970.53;5491939;26;19998;-67
2024/04/13 09:35:12;;;;;;;1.73;0.65;;;;;;;-139.19;100.00;56970.53;5489608;26;20491;-66
2024/04/13 09:37:38;;;;;;;1.23;1.10;;;;;;;-139.19;100.00;56970.53;5489691;26;19998;-66
2024/04/13 09:40:05;;;;;;;1.52;0.82;;;;;;;-139.19;100.00;56970.53;5509427;26;19998;-66
2024/04/13 09:42:31;;;;;;;1.30;0.82;;;;;;;-139.19;100.00;56970.53;5512752;26;20342;-66
2024/04/13 09:45:06;;;;;;;0.77;0.57;;;;;;;-139.19;100.00;56970.53;5489987;26;19998;-66
2024/04/13 09:47:32;;;;;;;1.55;1.00;;;;;;;-139.19;100.00;56970.53;5489374;26;19994;-66
2024/04/13 09:49:57;;;;;;;2.10;0.90;;;;;;;-139.19;100.00;56970.53;5519085;26;20001;-66
2024/04/13 09:52:23;;;;;;;2.80;1.17;;;;;;;-139.19;100.00;56970.53;5518497;26;19994;-66
2024/04/13 09:54:48;;;;;;;3.35;1.23;;;;;;;-139.19;100.00;56970.53;5489209;26;20099;-76
2024/04/13 09:57:15;;;;;;;1.70;0.80;;;;;;;-139.19;100.00;56970.53;5491423;26;20012;-78
2024/04/13 09:59:42;;;;;;;1.05;0.95;;;;;;;-139.19;100.00;56970.53;5497983;26;20329;-78
2024/04/13 10:02:09;;;;;;;0.70;0.63;;;;;;;-139.19;100.00;56970.53;5525093;26;20511;-77
2024/04/13 10:04:34;;;;;;;2.15;0.95;;;;;;;-139.19;100.00;56970.53;5474625;26;19994;-67
2024/04/13 10:07:01;;;;;;;1.75;1.05;;;;;;;-139.19;100.00;56970.53;5463385;26;20005;-67
2024/04/13 10:09:28;;;;;;;0.50;0.50;;;;;;;-139.19;100.00;56970.53;5489931;26;20003;-67
2024/04/13 10:11:55;;;;;;;0.38;0.38;;;;;;;-139.19;100.00;56970.53;5496282;26;19997;-67
2024/04/13 10:14:24;;;;;;;2.92;1.35;;;;;;;-139.19;100.00;56970.53;5512353;26;20431;-67
2024/04/13 10:16:52;;;;;;;3.72;1.23;;;;;;;-139.19;100.00;56970.53;5506394;26;19997;-67
2024/04/13 10:19:19;;;;;;;6.80;1.38;;;;;;;-139.19;100.00;56970.53;5504352;26;20004;-67
2024/04/13 10:21:57;;;;;;;1.90;1.20;;;;;;;-139.19;100.00;56970.53;5489849;26;20008;-67
2024/04/13 10:24:23;;;;;;;1.10;0.70;;;;;;;-139.19;100.00;56970.53;5490876;26;20326;-67
2024/04/13 10:26:48;;;;;;;1.35;0.95;;;;;;;-139.19;100.00;56970.53;5503695;26;20017;-67
2024/04/13 10:29:24;;;;;;;5.38;1.20;;;;;;;-139.19;100.00;56970.53;5509431;26;19994;-67
2024/04/13 10:31:50;;;;;;;5.93;0.88;;;;;;;-139.19;100.00;56970.53;5524498;26;20382;-67
2024/04/13 10:34:24;;;;;;;1.25;1.13;;;;;;;-139.19;100.00;56970.53;5524953;25;19994;-67
2024/04/13 10:36:56;;;;;;;6.15;1.50;;;;;;;-139.19;100.00;56970.53;5502283;26;20384;-66
2024/04/13 10:39:22;;;;;;;7.68;1.52;;;;;;;-139.19;100.00;56970.53;5503681;26;20002;-64
2024/04/13 10:41:47;;;;;;;4.38;1.55;;;;;;;-139.19;100.00;56970.53;5506937;26;20001;-64
2024/04/13 10:44:23;;;;;;;0.80;0.60;;;;;;;-139.19;100.00;56970.53;5511149;26;20055;-64
2024/04/13 10:46:50;;;;;;;1.08;0.65;;;;;;;-139.19;100.00;56970.53;5491265;26;20042;-64
2024/04/13 10:49:18;;;;;;;5.18;1.08;;;;;;;-139.19;100.00;56970.53;5498838;26;20016;-64
2024/04/13 10:51:44;;;;;;;3.63;1.27;;;;;;;-139.19;100.00;56970.53;5491374;26;21938;-64
2024/04/13 10:54:15;;;;;;;0.40;0.40;;;;;;;-139.19;100.00;56970.53;5491375;26;20006;-63
2024/04/13 10:56:42;;;;;;;1.42;0.80;;;;;;;-139.19;100.00;56970.53;5490761;26;20446;-63
2024/04/13 10:59:08;;;;;;;1.85;1.08;;;;;;;-139.19;100.00;56970.53;5491973;26;20074;-63
2024/04/13 11:01:33;;;;;;;2.63;1.23;;;;;;;-139.19;100.00;56970.53;5491235;26;20012;-63
2024/04/13 11:04:10;;;;;;;1.60;1.00;;;;;;;-139.19;100.00;56970.53;5491266;26;20322;-63
2024/04/13 11:06:38;;;;;;;1.20;0.98;;;;;;;-139.19;100.00;56970.53;5490060;26;20006;-63